Terminal Aerodrome Forecast
Issued by NWS St Louis, MO

Home | Current Version | Previous Version | Text Only | Print | Product List | Glossary On
Versions: 1 2 3 4 5 6 7 8 9 10 11 12 13 14 15 16
000
FTUS43 KLSX 250500
TAFCOU
TAF
KCOU 250532Z 2506/2606 29011KT P6SM SCT030
      TEMPO 2507/2509 BKN030
     FM251200 29008KT P6SM SKC
     FM252100 23007KT P6SM SKC
     FM260000 VRB04KT P6SM SCT250=

USA.gov is the U.S. government's official web portal to all federal, state and local government web resources and services.